Time;durP1;ratioP1;P1;durP2;ratioP2;P2;SDS_P1;SDS_P2;PMS_P1;PMS_P2;Temp;Humidity;BMP_temperature;BMP_pressure;BME280_temperature;BME280_humidity;BME280_pressure;Samples;Min_cycle;Max_cycle;Signal;HPM_P1;HPM_P2
2022/10/20 00:00:49;;;;;;;9.18;4.90;;;8.20;99.90;;;;;;5010779;28;20274;-78
2022/10/20 00:03:15;;;;;;;12.68;4.78;;;8.20;99.90;;;;;;5010310;28;20038;-78
2022/10/20 00:05:40;;;;;;;10.60;4.88;;;8.20;99.90;;;;;;4993448;28;20061;-78
2022/10/20 00:08:06;;;;;;;8.70;4.45;;;8.20;99.90;;;;;;4994151;28;20038;-77
2022/10/20 00:10:31;;;;;;;9.60;4.55;;;8.20;99.90;;;;;;4977616;28;20120;-77
2022/10/20 00:12:57;;;;;;;8.65;5.15;;;8.20;99.90;;;;;;4992480;28;20048;-77
2022/10/20 00:15:22;;;;;;;11.98;5.70;;;8.20;99.90;;;;;;5008411;28;20042;-77
2022/10/20 00:17:48;;;;;;;12.43;4.85;;;8.20;99.90;;;;;;5028079;28;20045;-77
2022/10/20 00:20:13;;;;;;;10.57;4.93;;;8.10;99.90;;;;;;5008796;28;20129;-77
2022/10/20 00:22:39;;;;;;;10.98;5.15;;;8.10;99.90;;;;;;4993926;28;20043;-77
2022/10/20 00:25:05;;;;;;;8.57;4.30;;;8.00;99.90;;;;;;5009767;28;20042;-77
2022/10/20 00:27:31;;;;;;;12.85;4.60;;;8.00;99.90;;;;;;4990215;28;20031;-77
2022/10/20 00:29:56;;;;;;;10.55;4.57;;;8.00;99.90;;;;;;4995075;28;20460;-77
2022/10/20 00:32:22;;;;;;;9.20;5.20;;;8.00;99.90;;;;;;4977828;28;20040;-77
2022/10/20 00:34:47;;;;;;;10.07;4.35;;;8.00;99.90;;;;;;4992916;28;20085;-78
2022/10/20 00:37:13;;;;;;;12.15;5.32;;;8.00;99.90;;;;;;5008882;28;20038;-79
2022/10/20 00:39:39;;;;;;;10.30;4.28;;;8.00;99.90;;;;;;4994660;28;20042;-78
2022/10/20 00:42:05;;;;;;;11.38;4.85;;;7.90;99.90;;;;;;4976742;28;20042;-79
2022/10/20 00:44:58;;;;;;;11.93;4.53;;;7.90;99.90;;;;;;4991576;28;20110;-78
2022/10/20 00:47:42;;;;;;;11.00;4.40;;;7.90;99.90;;;;;;4994239;28;20046;-78
2022/10/20 00:50:11;;;;;;;10.93;4.50;;;7.90;99.90;;;;;;4994862;28;20125;-77
2022/10/20 00:52:37;;;;;;;10.20;4.70;;;7.90;99.90;;;;;;4993380;28;20440;-78
2022/10/20 00:55:05;;;;;;;9.98;4.50;;;7.90;99.90;;;;;;4992324;28;20101;-77
2022/10/20 00:57:31;;;;;;;10.30;4.65;;;7.80;99.90;;;;;;4994342;28;20485;-77
2022/10/20 00:59:57;;;;;;;10.02;4.80;;;7.80;99.90;;;;;;4994677;28;20085;-77
2022/10/20 01:02:22;;;;;;;9.73;4.55;;;7.80;99.90;;;;;;4993784;28;20078;-78
2022/10/20 01:04:49;;;;;;;10.07;4.53;;;7.70;99.90;;;;;;4993579;28;20046;-79
2022/10/20 01:07:15;;;;;;;9.68;4.47;;;7.80;99.90;;;;;;5010881;28;20050;-79
2022/10/20 01:09:40;;;;;;;12.95;5.10;;;7.80;99.90;;;;;;4977427;28;20046;-78
2022/10/20 01:12:19;;;;;;;7.95;4.43;;;7.80;99.90;;;;;;4994334;28;20054;-78
2022/10/20 01:15:07;;;;;;;9.55;4.53;;;7.80;99.90;;;;;;4977244;28;20551;-79
2022/10/20 01:17:57;;;;;;;9.43;4.80;;;7.70;99.90;;;;;;4992605;28;20501;-78
2022/10/20 01:20:40;;;;;;;7.75;3.90;;;7.60;99.90;;;;;;4978033;28;20128;-79
2022/10/20 01:23:24;;;;;;;11.85;4.70;;;7.60;99.90;;;;;;4992230;28;20507;-79
2022/10/20 01:25:56;;;;;;;8.50;4.28;;;7.60;99.90;;;;;;4994133;28;20177;-79
2022/10/20 01:28:49;;;;;;;11.43;4.50;;;7.60;99.90;;;;;;5010433;28;20046;-79
2022/10/20 01:31:41;;;;;;;9.32;4.55;;;7.60;99.90;;;;;;4993266;28;20082;-78
2022/10/20 01:34:31;;;;;;;8.85;4.47;;;7.60;99.90;;;;;;4971637;28;20086;-78
2022/10/20 01:37:34;;;;;;;9.00;4.75;;;7.50;99.90;;;;;;5010615;28;20050;-78
2022/10/20 01:40:11;;;;;;;9.27;4.90;;;7.50;99.90;;;;;;4997591;28;20077;-78
2022/10/20 01:42:38;;;;;;;9.80;5.00;;;7.50;99.90;;;;;;5007471;28;20523;-78
2022/10/20 01:45:05;;;;;;;11.90;4.68;;;7.50;99.90;;;;;;4992726;28;20526;-78
2022/10/20 01:47:33;;;;;;;9.93;4.60;;;7.50;99.90;;;;;;4977436;28;20052;-78
2022/10/20 01:50:01;;;;;;;9.20;4.45;;;7.50;99.90;;;;;;4993889;28;20034;-77
2022/10/20 01:52:28;;;;;;;9.68;4.47;;;7.50;99.90;;;;;;4993002;28;20030;-77
2022/10/20 01:54:54;;;;;;;8.45;4.18;;;7.50;99.90;;;;;;4976345;28;20050;-77
2022/10/20 01:58:02;;;;;;;10.13;4.82;;;7.50;99.90;;;;;;5008197;28;20049;-78
2022/10/20 02:00:27;;;;;;;8.40;4.65;;;7.60;99.90;;;;;;5000617;28;20050;-78
2022/10/20 02:03:24;;;;;;;11.70;5.28;;;7.50;99.90;;;;;;4976451;28;20411;-78
2022/10/20 02:06:12;;;;;;;9.93;4.78;;;7.60;99.90;;;;;;4990054;28;20050;-78
2022/10/20 02:08:46;;;;;;;10.40;4.72;;;7.60;99.90;;;;;;4976731;28;20126;-78
2022/10/20 02:11:18;;;;;;;9.38;4.80;;;7.50;99.90;;;;;;4976849;28;20064;-78
2022/10/20 02:13:44;;;;;;;8.18;4.82;;;7.50;99.90;;;;;;4992391;28;20042;-78
2022/10/20 02:16:17;;;;;;;9.82;4.70;;;7.50;99.90;;;;;;4976990;28;20050;-77
2022/10/20 02:18:46;;;;;;;8.43;4.35;;;7.50;99.90;;;;;;4993400;28;20590;-78
2022/10/20 02:21:11;;;;;;;8.32;4.30;;;7.50;99.90;;;;;;4992773;28;20396;-78
2022/10/20 02:23:41;;;;;;;8.32;4.38;;;7.50;99.90;;;;;;5024700;28;20034;-78
2022/10/20 02:26:11;;;;;;;10.57;5.10;;;7.60;99.90;;;;;;4993213;28;20050;-78
2022/10/20 02:28:39;;;;;;;9.02;4.75;;;7.60;99.90;;;;;;5009361;28;20034;-77
2022/10/20 02:31:05;;;;;;;10.85;4.45;;;7.60;99.90;;;;;;5009531;28;20370;-78
2022/10/20 02:33:32;;;;;;;8.82;4.65;;;7.50;99.90;;;;;;4975382;28;20042;-78
2022/10/20 02:35:58;;;;;;;11.98;5.30;;;7.50;99.90;;;;;;4976262;28;20096;-78
2022/10/20 02:38:24;;;;;;;12.07;5.35;;;7.40;99.90;;;;;;5009182;28;20042;-77
2022/10/20 02:40:50;;;;;;;10.65;4.88;;;7.40;99.90;;;;;;5009191;28;20042;-77
2022/10/20 02:43:16;;;;;;;10.60;5.28;;;7.50;99.90;;;;;;5008315;28;20042;-77
2022/10/20 02:45:41;;;;;;;8.85;4.85;;;7.40;99.90;;;;;;5007960;28;20112;-78
2022/10/20 02:48:10;;;;;;;12.02;5.35;;;7.40;99.90;;;;;;5008252;28;20038;-78
2022/10/20 02:50:36;;;;;;;11.05;5.00;;;7.40;99.90;;;;;;4976721;28;20366;-78
2022/10/20 02:53:03;;;;;;;10.68;5.20;;;7.50;99.90;;;;;;4976509;28;20559;-77
2022/10/20 02:55:29;;;;;;;8.90;4.57;;;7.40;99.90;;;;;;5007948;28;20046;-77
2022/10/20 02:57:54;;;;;;;8.68;4.95;;;7.40;99.90;;;;;;4991450;28;20485;-77
2022/10/20 03:00:20;;;;;;;9.10;4.95;;;7.40;99.90;;;;;;4991313;28;20467;-78
2022/10/20 03:02:50;;;;;;;9.07;4.80;;;7.40;99.90;;;;;;4991743;28;20042;-78
2022/10/20 03:05:17;;;;;;;9.65;5.40;;;7.40;99.90;;;;;;4991364;28;20050;-78
2022/10/20 03:07:43;;;;;;;11.18;5.32;;;7.30;99.90;;;;;;4976303;28;20042;-78
2022/10/20 03:10:08;;;;;;;11.38;5.72;;;7.40;99.90;;;;;;4994798;28;20448;-77
2022/10/20 03:12:34;;;;;;;9.77;5.78;;;7.30;99.90;;;;;;5014617;28;20034;-78
2022/10/20 03:14:59;;;;;;;10.48;5.53;;;7.30;99.90;;;;;;4998324;28;20092;-78
2022/10/20 03:17:25;;;;;;;10.63;6.57;;;7.30;99.90;;;;;;5015537;28;20048;-78
2022/10/20 03:19:50;;;;;;;11.23;5.70;;;7.20;99.90;;;;;;4998319;28;20072;-78
2022/10/20 03:22:16;;;;;;;10.50;6.18;;;7.30;99.90;;;;;;4977604;28;20523;-78
2022/10/20 03:24:42;;;;;;;10.35;5.95;;;7.30;99.90;;;;;;4980398;28;20440;-78
2022/10/20 03:27:07;;;;;;;20.10;18.30;;;7.30;99.90;;;;;;5000937;28;20035;-78
2022/10/20 03:29:33;;;;;;;12.45;8.13;;;7.30;99.90;;;;;;4962618;28;20049;-78
2022/10/20 03:32:00;;;;;;;11.07;5.93;;;7.30;99.90;;;;;;5025929;28;20038;-78
2022/10/20 03:34:25;;;;;;;15.70;12.02;;;7.40;99.90;;;;;;4980978;28;20451;-78
2022/10/20 03:36:51;;;;;;;12.55;8.27;;;7.40;99.90;;;;;;4998595;28;20038;-77
2022/10/20 03:39:17;;;;;;;11.38;6.22;;;7.40;99.90;;;;;;4997430;28;20154;-77
2022/10/20 03:41:42;;;;;;;8.93;6.30;;;7.50;99.90;;;;;;5031681;28;20488;-78
2022/10/20 03:44:09;;;;;;;11.30;7.00;;;7.40;99.90;;;;;;4981539;28;20045;-78
2022/10/20 03:46:35;;;;;;;10.60;6.25;;;7.40;99.90;;;;;;5014856;28;20092;-78
2022/10/20 03:49:01;;;;;;;13.32;6.35;;;7.40;99.90;;;;;;5000967;28;20046;-78
2022/10/20 03:51:26;;;;;;;11.25;7.05;;;7.40;99.90;;;;;;5029711;28;20070;-78
2022/10/20 03:53:52;;;;;;;12.77;7.55;;;7.40;99.90;;;;;;5013065;28;20125;-78
2022/10/20 03:56:19;;;;;;;11.43;6.40;;;7.40;99.90;;;;;;4998156;28;20049;-78
2022/10/20 03:58:45;;;;;;;10.73;7.28;;;7.40;99.90;;;;;;4998621;28;20062;-77
2022/10/20 04:01:16;;;;;;;12.40;6.95;;;7.40;99.90;;;;;;4982928;28;20130;-78
2022/10/20 04:03:43;;;;;;;13.98;7.35;;;7.40;99.90;;;;;;4974630;28;20042;-78
2022/10/20 04:06:12;;;;;;;13.02;7.28;;;7.30;99.90;;;;;;4997579;28;20569;-78
2022/10/20 04:08:38;;;;;;;14.85;9.40;;;7.40;99.90;;;;;;4997309;28;20489;-78
2022/10/20 04:11:04;;;;;;;13.10;8.25;;;7.30;99.90;;;;;;5008582;28;20041;-79
2022/10/20 04:13:30;;;;;;;11.18;7.07;;;7.30;99.90;;;;;;4986282;28;20097;-78
2022/10/20 04:15:55;;;;;;;14.50;8.00;;;7.30;99.90;;;;;;4989801;28;20038;-78
2022/10/20 04:18:21;;;;;;;12.50;7.40;;;7.40;99.90;;;;;;4995362;28;20038;-78
2022/10/20 04:20:47;;;;;;;13.30;7.57;;;7.40;99.90;;;;;;4989314;28;20042;-78
2022/10/20 04:23:13;;;;;;;11.38;9.20;;;7.40;99.90;;;;;;4977354;28;20081;-78
2022/10/20 04:25:46;;;;;;;12.38;8.00;;;7.40;99.90;;;;;;4975975;28;20129;-78
2022/10/20 04:28:13;;;;;;;14.48;7.90;;;7.30;99.90;;;;;;4994239;28;20042;-78
2022/10/20 04:30:39;;;;;;;14.23;7.88;;;7.40;99.90;;;;;;5026506;28;20448;-78
2022/10/20 04:33:05;;;;;;;11.98;7.70;;;7.40;99.90;;;;;;5006490;28;20362;-78
2022/10/20 04:35:30;;;;;;;11.93;7.95;;;7.40;99.90;;;;;;4977910;28;20045;-78
2022/10/20 04:37:56;;;;;;;14.60;8.38;;;7.40;99.90;;;;;;5008103;28;20046;-78
2022/10/20 04:40:21;;;;;;;13.20;8.50;;;7.30;99.90;;;;;;4987117;28;20114;-78
2022/10/20 04:42:47;;;;;;;12.57;8.05;;;7.30;99.90;;;;;;4994878;28;20498;-77
2022/10/20 04:45:12;;;;;;;11.63;8.00;;;7.20;99.90;;;;;;4994809;28;20054;-78
2022/10/20 04:47:38;;;;;;;12.10;8.48;;;7.30;99.90;;;;;;4983494;28;20034;-78
2022/10/20 04:51:00;;;;;;;13.63;8.75;;;7.30;99.90;;;;;;5011052;28;20042;-78
2022/10/20 04:53:25;;;;;;;13.45;9.13;;;7.20;99.90;;;;;;5017899;28;20034;-75
2022/10/20 04:55:58;;;;;;;13.70;8.48;;;7.30;99.90;;;;;;5002453;28;20048;-75
2022/10/20 04:58:25;;;;;;;13.10;9.00;;;7.20;99.90;;;;;;5014136;28;20065;-75
2022/10/20 05:00:51;;;;;;;12.10;8.02;;;7.10;99.90;;;;;;5011386;28;20046;-75
2022/10/20 05:03:18;;;;;;;15.80;9.27;;;7.20;99.90;;;;;;4996466;28;20054;-75
2022/10/20 05:05:44;;;;;;;13.98;8.98;;;7.10;99.90;;;;;;4974772;28;20208;-75
2022/10/20 05:08:10;;;;;;;15.13;8.93;;;7.20;99.90;;;;;;4993038;28;20557;-75
2022/10/20 05:10:35;;;;;;;13.32;9.65;;;7.20;99.90;;;;;;4992834;28;20121;-75
2022/10/20 05:13:01;;;;;;;16.55;10.32;;;7.20;99.90;;;;;;4992564;28;20411;-75
2022/10/20 05:15:26;;;;;;;12.23;9.30;;;7.20;99.90;;;;;;4982216;28;20058;-75
2022/10/20 05:17:52;;;;;;;13.65;9.52;;;7.20;99.90;;;;;;4984605;28;20152;-75
2022/10/20 05:20:17;;;;;;;15.13;9.73;;;7.20;99.90;;;;;;5007723;28;20121;-75
2022/10/20 05:22:43;;;;;;;13.07;9.35;;;7.20;99.90;;;;;;4977290;28;20046;-75
2022/10/20 05:25:09;;;;;;;13.15;8.63;;;7.20;99.90;;;;;;4977124;28;20045;-75
2022/10/20 05:27:34;;;;;;;15.73;10.13;;;7.10;99.90;;;;;;5009587;28;20089;-75
2022/10/20 05:30:01;;;;;;;17.10;10.23;;;7.10;99.90;;;;;;4993593;28;20407;-75
2022/10/20 05:32:28;;;;;;;16.08;9.68;;;7.00;99.90;;;;;;4991870;28;20114;-75
2022/10/20 05:34:54;;;;;;;14.93;10.23;;;7.10;99.90;;;;;;4992960;28;20555;-75
2022/10/20 05:37:19;;;;;;;12.75;9.60;;;7.00;99.90;;;;;;4992507;28;20054;-75
2022/10/20 05:39:45;;;;;;;16.02;10.05;;;7.00;99.90;;;;;;4993094;28;20034;-75
2022/10/20 05:42:11;;;;;;;15.45;10.38;;;6.90;99.90;;;;;;4976739;28;20046;-75
2022/10/20 05:44:36;;;;;;;16.25;10.38;;;7.00;99.90;;;;;;4988548;28;20125;-75
2022/10/20 05:47:02;;;;;;;13.88;10.02;;;6.90;99.90;;;;;;4983085;28;20046;-75
2022/10/20 05:49:28;;;;;;;16.17;10.88;;;6.90;99.90;;;;;;4976905;28;20512;-75
2022/10/20 05:51:53;;;;;;;15.40;10.18;;;6.90;99.90;;;;;;4975950;28;20528;-75
2022/10/20 05:54:19;;;;;;;17.23;10.65;;;6.90;99.90;;;;;;4992442;28;20046;-75
2022/10/20 05:56:45;;;;;;;14.45;10.93;;;6.90;99.90;;;;;;4991409;28;20038;-75
2022/10/20 05:59:11;;;;;;;15.98;10.48;;;6.90;99.90;;;;;;4996646;28;20057;-75
2022/10/20 06:01:49;;;;;;;16.38;10.95;;;6.90;99.90;;;;;;4996808;28;20045;-75
2022/10/20 06:04:17;;;;;;;16.65;10.27;;;6.90;99.90;;;;;;4984940;28;20046;-75
2022/10/20 06:06:43;;;;;;;14.75;10.95;;;6.80;99.90;;;;;;4991757;28;20046;-75
2022/10/20 06:09:10;;;;;;;14.52;10.18;;;6.90;99.90;;;;;;4976353;28;20042;-75
2022/10/20 06:11:35;;;;;;;15.90;11.68;;;6.90;99.90;;;;;;5025840;28;20034;-75
2022/10/20 06:14:01;;;;;;;16.42;10.60;;;6.90;99.90;;;;;;5027434;28;20041;-75
2022/10/20 06:16:28;;;;;;;14.60;9.90;;;7.00;99.90;;;;;;4991551;28;20456;-75
2022/10/20 06:18:55;;;;;;;14.77;10.73;;;7.00;99.90;;;;;;4990518;28;20049;-75
2022/10/20 06:21:24;;;;;;;14.40;10.63;;;7.00;99.90;;;;;;4992208;28;20034;-75
2022/10/20 06:23:50;;;;;;;17.02;11.55;;;7.00;99.90;;;;;;4960433;28;20105;-75
2022/10/20 06:26:24;;;;;;;17.05;11.40;;;6.90;99.90;;;;;;5024701;28;20066;-75
2022/10/20 06:28:54;;;;;;;17.45;11.95;;;6.90;99.90;;;;;;4991455;28;20060;-75
2022/10/20 06:31:28;;;;;;;17.77;11.23;;;6.90;99.90;;;;;;5025628;28;20045;-75
2022/10/20 06:33:55;;;;;;;14.57;11.27;;;6.90;99.90;;;;;;4992957;28;20124;-75
2022/10/20 06:36:22;;;;;;;17.77;11.40;;;6.90;99.90;;;;;;5025756;28;20109;-76
2022/10/20 06:38:51;;;;;;;17.00;11.40;;;6.90;99.90;;;;;;4976569;28;20560;-75
2022/10/20 06:41:17;;;;;;;15.80;11.43;;;6.90;99.90;;;;;;4992856;28;20038;-75
2022/10/20 06:43:43;;;;;;;16.67;11.90;;;7.00;99.90;;;;;;4975068;28;20089;-75
2022/10/20 06:46:15;;;;;;;18.67;12.15;;;7.00;99.90;;;;;;4977941;28;20038;-75
2022/10/20 06:48:41;;;;;;;19.07;12.23;;;7.00;99.90;;;;;;4982362;28;20038;-75
2022/10/20 06:51:10;;;;;;;15.13;11.75;;;7.10;99.90;;;;;;4986293;28;20700;-76
2022/10/20 06:53:36;;;;;;;16.33;12.50;;;7.10;99.90;;;;;;4970956;28;20436;-75
2022/10/20 06:56:09;;;;;;;15.55;11.35;;;7.10;99.90;;;;;;5007294;28;20092;-76
2022/10/20 06:58:36;;;;;;;16.67;11.13;;;7.10;99.90;;;;;;4990103;28;20133;-76
2022/10/20 07:01:17;;;;;;;17.23;11.65;;;7.20;99.90;;;;;;4991030;28;20050;-75
2022/10/20 07:03:45;;;;;;;16.10;11.80;;;7.20;99.90;;;;;;5001950;28;20039;-75
2022/10/20 07:06:13;;;;;;;16.42;10.68;;;7.20;99.90;;;;;;4972779;28;20129;-75
2022/10/20 07:08:39;;;;;;;15.55;11.18;;;7.30;99.90;;;;;;4987795;28;20547;-75
2022/10/20 07:11:07;;;;;;;16.25;11.88;;;7.30;99.90;;;;;;4975022;28;20042;-75
2022/10/20 07:13:34;;;;;;;14.85;10.38;;;7.30;99.90;;;;;;4985444;28;20381;-83
2022/10/20 07:16:00;;;;;;;16.75;10.93;;;7.30;99.90;;;;;;4974938;28;20401;-73
2022/10/20 07:18:27;;;;;;;17.15;11.88;;;7.40;99.90;;;;;;4989347;28;20038;-75
2022/10/20 07:21:01;;;;;;;15.57;11.00;;;7.50;99.90;;;;;;4988405;28;20050;-76
2022/10/20 07:23:29;;;;;;;13.85;10.63;;;7.50;99.90;;;;;;4975142;28;20042;-75
2022/10/20 07:26:03;;;;;;;16.55;10.32;;;7.60;99.90;;;;;;5006056;28;20042;-76
2022/10/20 07:28:28;;;;;;;15.82;11.68;;;7.60;99.90;;;;;;4990212;28;20089;-75
2022/10/20 07:30:54;;;;;;;18.00;11.45;;;7.60;99.90;;;;;;4974465;28;20047;-76
2022/10/20 07:33:20;;;;;;;16.13;12.02;;;7.60;99.90;;;;;;5021085;28;20061;-76
2022/10/20 07:35:46;;;;;;;16.15;10.95;;;7.60;99.90;;;;;;4991599;28;20100;-76
2022/10/20 07:38:12;;;;;;;14.68;10.70;;;7.60;99.90;;;;;;4972639;28;20043;-76
2022/10/20 07:40:37;;;;;;;17.48;11.82;;;7.70;99.90;;;;;;5005953;28;20049;-76
2022/10/20 07:43:03;;;;;;;13.75;9.82;;;7.70;99.90;;;;;;4973080;28;20046;-75
2022/10/20 07:45:28;;;;;;;17.55;11.85;;;7.80;99.90;;;;;;4990451;28;20045;-76
2022/10/20 07:47:54;;;;;;;16.52;11.18;;;7.80;99.90;;;;;;5023055;28;20120;-76
2022/10/20 07:50:20;;;;;;;16.25;10.82;;;7.80;99.90;;;;;;4990995;28;20408;-76
2022/10/20 07:52:50;;;;;;;17.88;11.30;;;7.70;99.90;;;;;;4974375;28;20038;-76
2022/10/20 07:55:15;;;;;;;17.17;11.27;;;7.70;99.90;;;;;;5020038;28;20468;-76
2022/10/20 07:57:41;;;;;;;17.13;10.90;;;7.70;99.90;;;;;;4978617;28;20069;-76
2022/10/20 08:00:07;;;;;;;15.73;10.80;;;7.80;99.90;;;;;;4994645;28;20038;-76
2022/10/20 08:02:33;;;;;;;14.98;10.52;;;7.90;99.90;;;;;;4994489;28;20041;-76
2022/10/20 08:04:58;;;;;;;14.45;9.38;;;7.90;99.90;;;;;;4977958;28;20030;-76
2022/10/20 08:07:24;;;;;;;13.70;10.32;;;8.10;99.90;;;;;;4995688;28;20121;-76
2022/10/20 08:09:49;;;;;;;15.98;10.90;;;8.10;99.90;;;;;;4975881;28;20038;-76
2022/10/20 08:12:15;;;;;;;15.40;10.27;;;8.10;99.90;;;;;;4978127;28;20035;-78
2022/10/20 08:14:43;;;;;;;14.32;8.80;;;8.10;99.90;;;;;;4977018;28;20101;-73
2022/10/20 08:17:09;;;;;;;14.80;10.25;;;8.30;99.90;;;;;;4987194;28;20046;-76
2022/10/20 08:19:34;;;;;;;14.63;10.52;;;8.40;99.90;;;;;;4995188;28;20133;-76
2022/10/20 08:22:00;;;;;;;17.83;10.45;;;8.30;99.90;;;;;;4994304;28;20053;-75
2022/10/20 08:24:26;;;;;;;15.50;9.77;;;8.30;99.90;;;;;;4977794;28;20042;-76
2022/10/20 08:26:51;;;;;;;15.30;11.35;;;8.30;99.90;;;;;;4993566;28;20106;-76
2022/10/20 08:29:17;;;;;;;14.98;10.35;;;8.30;99.90;;;;;;5011205;28;20413;-75
2022/10/20 08:31:43;;;;;;;14.48;10.98;;;8.30;99.90;;;;;;5027418;28;20066;-76
2022/10/20 08:34:09;;;;;;;14.50;9.52;;;8.30;99.90;;;;;;4994838;28;20038;-75
2022/10/20 08:36:36;;;;;;;15.85;10.88;;;8.40;99.90;;;;;;4993998;28;20500;-76
2022/10/20 08:39:02;;;;;;;15.38;10.48;;;8.40;99.90;;;;;;4995035;28;20097;-76
2022/10/20 08:41:34;;;;;;;15.18;9.57;;;8.60;99.90;;;;;;4993852;28;20488;-75
2022/10/20 08:44:02;;;;;;;15.27;10.02;;;8.60;99.90;;;;;;4994415;28;20050;-76
2022/10/20 08:46:37;;;;;;;17.52;10.05;;;8.80;99.90;;;;;;5010079;28;20110;-76
2022/10/20 08:49:06;;;;;;;14.23;10.25;;;8.80;99.90;;;;;;4994369;28;20034;-76
2022/10/20 08:51:37;;;;;;;13.85;9.82;;;8.80;99.90;;;;;;4977096;28;20030;-76
2022/10/20 08:54:04;;;;;;;11.93;8.60;;;8.90;99.90;;;;;;4994200;28;20389;-76
2022/10/20 08:56:33;;;;;;;13.73;9.32;;;8.90;99.90;;;;;;4993636;28;20164;-75
2022/10/20 08:59:00;;;;;;;13.30;8.52;;;9.00;99.90;;;;;;4993108;28;20050;-75
2022/10/20 09:01:31;;;;;;;13.85;8.88;;;9.00;99.90;;;;;;4993998;28;20038;-75
2022/10/20 09:04:03;;;;;;;14.23;9.68;;;9.10;99.90;;;;;;5024611;28;20049;-76
2022/10/20 09:06:29;;;;;;;13.40;9.43;;;9.10;99.90;;;;;;5010845;28;20049;-75
2022/10/20 09:08:56;;;;;;;13.93;10.15;;;9.20;99.90;;;;;;5025426;28;20044;-76
2022/10/20 09:11:30;;;;;;;14.15;8.98;;;9.20;99.90;;;;;;4994644;28;20038;-76
2022/10/20 09:13:56;;;;;;;13.80;8.30;;;9.30;99.90;;;;;;5009573;28;20110;-76
2022/10/20 09:16:36;;;;;;;12.48;7.88;;;9.40;99.90;;;;;;5006237;28;20404;-75
2022/10/20 09:19:05;;;;;;;12.27;8.43;;;9.50;99.90;;;;;;5036313;28;20100;-75
2022/10/20 09:21:32;;;;;;;12.35;8.88;;;9.60;99.90;;;;;;4990944;28;20117;-76
2022/10/20 09:24:04;;;;;;;14.68;9.38;;;9.60;99.90;;;;;;4993832;28;20097;-76
2022/10/20 09:26:30;;;;;;;12.90;8.77;;;9.70;99.90;;;;;;4982066;28;20493;-76
2022/10/20 09:29:09;;;;;;;14.02;8.85;;;9.70;99.90;;;;;;4992869;28;20046;-76
2022/10/20 09:31:40;;;;;;;12.20;8.82;;;9.80;99.90;;;;;;4991457;28;20030;-76
2022/10/20 09:34:38;;;;;;;13.38;8.77;;;9.90;99.90;;;;;;4977859;28;20044;-76
2022/10/20 09:37:12;;;;;;;14.00;8.25;;;10.00;99.90;;;;;;4962206;28;20292;-76
2022/10/20 09:39:57;;;;;;;11.77;8.13;;;10.00;99.90;;;;;;4993715;28;20422;-73
2022/10/20 09:42:27;;;;;;;10.95;7.43;;;10.00;99.90;;;;;;4971236;28;20480;-75
2022/10/20 09:45:00;;;;;;;11.68;8.05;;;10.00;99.90;;;;;;4975426;28;20045;-75
2022/10/20 09:47:27;;;;;;;11.95;7.47;;;10.10;99.90;;;;;;5007857;28;20042;-75
2022/10/20 09:49:57;;;;;;;13.27;8.05;;;10.30;99.90;;;;;;4976999;28;20101;-75
2022/10/20 09:52:29;;;;;;;11.40;7.90;;;10.20;99.90;;;;;;4990379;28;20392;-76
2022/10/20 09:55:18;;;;;;;10.87;7.43;;;10.20;99.90;;;;;;4994047;28;20047;-76
2022/10/20 09:57:48;;;;;;;12.10;7.32;;;10.30;99.90;;;;;;4989939;28;20854;-76
2022/10/20 10:00:33;;;;;;;11.75;7.07;;;10.40;99.90;;;;;;4976411;28;20520;-75
2022/10/20 10:03:20;;;;;;;11.27;7.20;;;10.40;99.90;;;;;;4991948;28;20045;-75
2022/10/20 10:05:58;;;;;;;12.57;7.13;;;10.40;99.90;;;;;;4974999;28;20042;-74
2022/10/20 10:08:42;;;;;;;11.07;7.57;;;10.40;99.90;;;;;;4975273;28;20384;-75
2022/10/20 10:11:16;;;;;;;12.85;7.95;;;10.40;99.90;;;;;;4971232;28;20421;-75
2022/10/20 10:13:45;;;;;;;11.18;7.22;;;10.50;99.90;;;;;;4960158;28;20117;-75
2022/10/20 10:16:14;;;;;;;11.48;6.45;;;10.50;99.90;;;;;;4980535;28;20043;-76
2022/10/20 10:18:43;;;;;;;9.75;6.22;;;10.60;99.90;;;;;;5008615;28;20131;-75
2022/10/20 10:21:12;;;;;;;11.25;7.55;;;10.70;99.90;;;;;;4991135;28;20042;-76
2022/10/20 10:24:00;;;;;;;9.45;6.75;;;10.60;99.90;;;;;;4976877;28;20070;-76
2022/10/20 10:26:42;;;;;;;10.05;6.78;;;10.70;99.90;;;;;;4990128;28;20046;-76
2022/10/20 10:29:37;;;;;;;14.30;7.88;;;10.70;99.90;;;;;;4976685;28;20489;-75
2022/10/20 10:32:14;;;;;;;10.75;7.38;;;10.70;99.90;;;;;;4978809;28;20493;-76
2022/10/20 10:35:03;;;;;;;11.07;7.25;;;10.70;99.90;;;;;;5007024;28;20046;-76
2022/10/20 10:37:30;;;;;;;9.68;5.13;;;10.80;99.90;;;;;;4991664;28;20050;-75
2022/10/20 10:39:55;;;;;;;10.95;7.32;;;11.00;99.90;;;;;;4990261;28;20403;-76
2022/10/20 10:42:40;;;;;;;12.57;7.40;;;11.10;99.90;;;;;;4976199;28;20038;-76
2022/10/20 10:45:34;;;;;;;9.80;7.15;;;11.20;99.90;;;;;;4991301;28;20462;-76
2022/10/20 10:48:15;;;;;;;13.23;7.55;;;11.30;99.90;;;;;;4991373;28;20129;-74
2022/10/20 10:51:00;;;;;;;11.40;7.35;;;11.40;99.90;;;;;;4999244;28;20085;-76
2022/10/20 10:53:39;;;;;;;11.60;7.03;;;11.50;99.90;;;;;;5003396;28;20365;-76
2022/10/20 10:56:11;;;;;;;11.10;6.95;;;11.60;99.90;;;;;;4991474;28;20100;-76
2022/10/20 10:58:58;;;;;;;12.50;7.57;;;11.70;99.90;;;;;;4991194;28;20065;-76
2022/10/20 11:01:55;;;;;;;11.23;7.32;;;11.70;99.90;;;;;;4988769;28;20096;-76
2022/10/20 11:04:47;;;;;;;12.23;7.15;;;11.80;99.90;;;;;;4992791;28;20073;-76
2022/10/20 11:07:23;;;;;;;12.57;7.78;;;11.80;99.90;;;;;;5008885;28;20096;-76
2022/10/20 11:09:54;;;;;;;12.07;7.45;;;11.90;99.90;;;;;;5006019;28;20042;-76
2022/10/20 11:12:43;;;;;;;11.82;8.50;;;11.90;99.90;;;;;;4975028;28;20527;-76
2022/10/20 11:15:38;;;;;;;9.98;7.78;;;11.80;99.90;;;;;;4969943;28;20385;-76
2022/10/20 11:18:30;;;;;;;10.25;7.60;;;11.90;99.90;;;;;;5023082;28;20407;-76
2022/10/20 11:21:26;;;;;;;11.23;7.50;;;11.90;99.90;;;;;;5016523;28;20042;-76
2022/10/20 11:24:38;;;;;;;9.35;6.30;;;12.10;99.90;;;;;;5003378;28;20121;-75
2022/10/20 11:27:12;;;;;;;10.35;6.53;;;12.30;99.90;;;;;;4978944;28;20492;-76
2022/10/20 11:30:13;;;;;;;10.90;6.43;;;12.40;99.90;;;;;;4990925;28;20049;-76
2022/10/20 11:33:02;;;;;;;8.98;5.28;;;12.40;99.90;;;;;;4978523;28;20046;-76
2022/10/20 11:35:47;;;;;;;11.63;7.63;;;12.60;99.90;;;;;;5006785;28;20042;-76
2022/10/20 11:38:36;;;;;;;10.88;6.38;;;12.50;99.90;;;;;;4976590;28;20039;-76
2022/10/20 11:41:07;;;;;;;12.40;7.32;;;12.50;99.90;;;;;;5010667;28;20137;-76
2022/10/20 11:44:02;;;;;;;11.88;6.90;;;12.50;99.90;;;;;;5027852;28;20464;-76
2022/10/20 11:46:32;;;;;;;12.10;6.95;;;12.50;99.90;;;;;;5009877;28;20504;-72
2022/10/20 11:48:58;;;;;;;11.68;7.15;;;12.50;99.90;;;;;;4995519;28;20073;-72
2022/10/20 11:51:30;;;;;;;10.38;7.72;;;12.40;99.90;;;;;;5012200;28;20073;-71
2022/10/20 11:54:27;;;;;;;10.52;7.50;;;12.50;99.90;;;;;;4995313;28;20531;-71
2022/10/20 11:57:11;;;;;;;12.50;6.90;;;12.40;99.90;;;;;;4995371;28;20046;-79
2022/10/20 12:00:18;;;;;;;9.52;6.60;;;12.40;99.90;;;;;;5009563;28;20505;-77
2022/10/20 12:03:08;;;;;;;11.55;7.65;;;12.40;99.90;;;;;;4992259;28;20053;-77
2022/10/20 12:06:03;;;;;;;13.50;7.13;;;12.60;99.90;;;;;;4979429;28;20049;-77
2022/10/20 12:08:36;;;;;;;9.38;6.85;;;12.60;99.90;;;;;;5010301;28;20034;-77
2022/10/20 12:11:19;;;;;;;10.43;6.38;;;12.70;99.90;;;;;;5022542;28;20124;-77
2022/10/20 12:13:59;;;;;;;11.35;6.68;;;12.70;99.90;;;;;;4995137;28;20042;-77
2022/10/20 12:16:53;;;;;;;11.23;6.05;;;12.80;99.90;;;;;;5010307;28;20049;-77
2022/10/20 12:19:30;;;;;;;10.27;6.78;;;12.90;99.90;;;;;;4995539;28;20081;-77
2022/10/20 12:22:25;;;;;;;12.27;7.25;;;12.80;99.90;;;;;;4975797;28;20420;-77
2022/10/20 12:24:51;;;;;;;12.02;7.30;;;12.80;99.90;;;;;;4978234;28;20074;-77
2022/10/20 12:27:22;;;;;;;14.48;7.60;;;12.70;99.90;;;;;;4992903;28;20073;-77
2022/10/20 12:29:57;;;;;;;10.18;7.07;;;12.80;99.90;;;;;;4977088;28;20104;-77
2022/10/20 12:33:03;;;;;;;11.82;7.30;;;12.70;99.90;;;;;;4994494;28;20050;-77
2022/10/20 12:35:50;;;;;;;10.70;6.85;;;12.70;99.90;;;;;;5027255;28;20516;-77
2022/10/20 12:38:17;;;;;;;9.98;7.03;;;12.70;99.90;;;;;;4994157;28;20518;-77
2022/10/20 12:40:53;;;;;;;10.05;6.95;;;12.80;99.90;;;;;;4994740;28;20507;-82
2022/10/20 12:43:29;;;;;;;11.25;7.60;;;12.80;99.90;;;;;;5016797;28;20047;-75
2022/10/20 12:45:58;;;;;;;13.50;7.97;;;12.80;99.90;;;;;;4993630;28;20084;-75
2022/10/20 12:48:24;;;;;;;12.32;7.95;;;12.60;99.90;;;;;;4990897;28;20069;-75
2022/10/20 12:50:51;;;;;;;16.33;10.18;;;12.50;99.90;;;;;;5009429;28;20034;-74
2022/10/20 12:53:16;;;;;;;14.35;10.73;;;12.60;99.90;;;;;;5027170;28;20048;-75
2022/10/20 12:56:02;;;;;;;11.77;7.88;;;12.50;99.90;;;;;;4978734;28;20046;-75
2022/10/20 12:58:36;;;;;;;11.13;8.43;;;12.60;99.90;;;;;;4951841;28;20051;-75
2022/10/20 13:01:08;;;;;;;10.82;7.88;;;12.50;99.90;;;;;;4986325;28;20035;-75
2022/10/20 13:03:35;;;;;;;11.20;8.07;;;12.40;99.90;;;;;;4991764;28;20056;-75
2022/10/20 13:06:21;;;;;;;12.38;7.93;;;12.40;99.90;;;;;;5009084;28;20089;-75